This is the latest recevied weather packets stored in our database for station/object NR0Q. If no packets are shown the sender has not sent any weather packets the latest 10 day(s).
| Time | Temp. | Humidity | Pressure | Rain* | Wind** | Luminosity | Snow |
|---|---|---|---|---|---|---|---|
| 1778178601 | 20.56° C | 37% | 1017.6 hPa | 0 mm | - | - | - |
| 1778177701 | 20.56° C | 38% | 1017.6 hPa | 0 mm | - | - | - |
| 1778176801 | 20° C | 38% | 1018.6 hPa | 0 mm | - | - | - |
| 1778175901 | 20° C | 40% | 1018.6 hPa | 0 mm | - | - | - |
| 1778175002 | 20° C | 39% | 1018.6 hPa | 0 mm | - | - | - |
| 1778174101 | 19.44° C | 38% | 1018.6 hPa | 0 mm | - | - | - |
| 1778173201 | 19.44° C | 38% | 1018.6 hPa | 0 mm | - | - | - |
| 1778172301 | 19.44° C | 38% | 0 hPa | 0 mm | - | - | - |
| 1778171401 | 19.44° C | 36% | 0 hPa | 0 mm | - | - | - |
| 1778170501 | 18.33° C | 39% | 0 hPa | 0 mm | - | - | - |
| 1778169601 | 18.33° C | 39% | 0 hPa | 0 mm | - | - | - |
| 1778168701 | 17.22° C | 41% | 0 hPa | 0 mm | - | - | - |
| 1778167801 | 17.22° C | 42% | 0 hPa | 0 mm | - | - | - |
| 1778166901 | 16.67° C | 46% | 0 hPa | 0 mm | - | - | - |
| 1778166002 | 16.11° C | 46% | 1020.7 hPa | 0 mm | - | - | - |
| 1778165101 | 15.56° C | 52% | 1020.7 hPa | 0 mm | - | - | - |
| 1778164201 | 15° C | 53% | 1020.7 hPa | 0 mm | - | - | - |
| 1778163301 | 14.44° C | 54% | 1020.7 hPa | 0 mm | - | - | - |
| 1778162401 | 13.89° C | 56% | 1020.7 hPa | 0 mm | - | - | - |
| 1778161502 | 13.33° C | 64% | 1020.7 hPa | 0 mm | - | - | - |
| 1778160601 | 12.78° C | 71% | 1020.7 hPa | 0 mm | - | - | - |
| 1778159702 | 12.78° C | 74% | 1020.7 hPa | 0 mm | - | - | - |
| 1778158801 | 11.67° C | 76% | 1020.7 hPa | 0 mm | - | - | - |
| 1778157901 | 9.44° C | 81% | 1020.7 hPa | 0 mm | - | - | - |
| 1778157002 | 7.78° C | 88% | 1020.7 hPa | 0 mm | - | - | - |
* Rain latest hour (hover to see other rain measurements)
** Current wind speed in m/s (hover to see current wind gust speed)